sensor_id;sensor_type;location;lat;lon;timestamp;P1;durP1;ratioP1;P2;durP2;ratioP2
4428;SDS011;2227;47.810;8.810;2022-09-16T03:48:21;5.65;;;3.70;;
4428;SDS011;2227;47.810;8.810;2022-09-16T03:50:48;6.28;;;4.20;;
4428;SDS011;2227;47.810;8.810;2022-09-16T03:53:14;5.45;;;3.70;;
4428;SDS011;2227;47.810;8.810;2022-09-16T03:55:41;5.75;;;3.63;;
4428;SDS011;2227;47.810;8.810;2022-09-16T03:58:08;7.43;;;4.40;;
4428;SDS011;2227;47.810;8.810;2022-09-16T04:00:34;6.80;;;4.28;;
4428;SDS011;2227;47.810;8.810;2022-09-16T04:03:02;6.47;;;3.90;;
4428;SDS011;2227;47.810;8.810;2022-09-16T04:05:29;5.40;;;3.85;;
4428;SDS011;2227;47.810;8.810;2022-09-16T04:07:56;5.85;;;3.95;;
4428;SDS011;2227;47.810;8.810;2022-09-16T04:10:22;5.72;;;4.25;;
4428;SDS011;2227;47.810;8.810;2022-09-16T04:12:49;6.22;;;4.45;;
4428;SDS011;2227;47.810;8.810;2022-09-16T04:15:16;7.30;;;4.00;;
4428;SDS011;2227;47.810;8.810;2022-09-16T04:17:43;7.47;;;4.20;;
4428;SDS011;2227;47.810;8.810;2022-09-16T04:20:09;6.30;;;4.25;;
4428;SDS011;2227;47.810;8.810;2022-09-16T04:22:36;6.78;;;4.45;;
4428;SDS011;2227;47.810;8.810;2022-09-16T04:25:03;6.05;;;4.30;;
4428;SDS011;2227;47.810;8.810;2022-09-16T04:27:30;6.35;;;4.25;;
4428;SDS011;2227;47.810;8.810;2022-09-16T04:29:57;5.90;;;4.53;;
4428;SDS011;2227;47.810;8.810;2022-09-16T04:32:24;12.10;;;5.32;;
4428;SDS011;2227;47.810;8.810;2022-09-16T04:34:50;10.45;;;5.20;;
4428;SDS011;2227;47.810;8.810;2022-09-16T04:37:17;9.55;;;4.25;;
4428;SDS011;2227;47.810;8.810;2022-09-16T04:39:44;7.60;;;4.45;;
4428;SDS011;2227;47.810;8.810;2022-09-16T04:42:11;7.90;;;4.15;;
4428;SDS011;2227;47.810;8.810;2022-09-16T04:44:38;8.55;;;4.35;;
4428;SDS011;2227;47.810;8.810;2022-09-16T04:47:04;5.78;;;3.75;;
4428;SDS011;2227;47.810;8.810;2022-09-16T04:49:31;6.10;;;4.13;;
4428;SDS011;2227;47.810;8.810;2022-09-16T04:51:58;7.78;;;4.20;;
4428;SDS011;2227;47.810;8.810;2022-09-16T04:54:25;7.28;;;4.07;;
4428;SDS011;2227;47.810;8.810;2022-09-16T04:56:51;5.57;;;4.20;;
4428;SDS011;2227;47.810;8.810;2022-09-16T04:59:18;9.10;;;4.80;;
4428;SDS011;2227;47.810;8.810;2022-09-16T05:01:45;8.25;;;4.93;;
4428;SDS011;2227;47.810;8.810;2022-09-16T05:04:11;7.43;;;4.45;;
4428;SDS011;2227;47.810;8.810;2022-09-16T05:06:39;5.90;;;4.10;;
4428;SDS011;2227;47.810;8.810;2022-09-16T05:09:06;5.75;;;4.03;;
4428;SDS011;2227;47.810;8.810;2022-09-16T05:11:35;7.05;;;4.18;;
4428;SDS011;2227;47.810;8.810;2022-09-16T05:14:09;8.68;;;4.53;;
4428;SDS011;2227;47.810;8.810;2022-09-16T05:16:39;5.97;;;4.10;;
4428;SDS011;2227;47.810;8.810;2022-09-16T05:19:05;9.18;;;4.57;;
4428;SDS011;2227;47.810;8.810;2022-09-16T05:21:33;7.85;;;4.20;;
4428;SDS011;2227;47.810;8.810;2022-09-16T05:24:02;11.00;;;5.32;;
4428;SDS011;2227;47.810;8.810;2022-09-16T05:26:34;8.60;;;4.53;;
4428;SDS011;2227;47.810;8.810;2022-09-16T05:29:03;5.47;;;3.92;;
4428;SDS011;2227;47.810;8.810;2022-09-16T05:31:33;7.15;;;4.10;;
4428;SDS011;2227;47.810;8.810;2022-09-16T05:34:06;7.03;;;3.97;;
4428;SDS011;2227;47.810;8.810;2022-09-16T05:36:40;6.78;;;4.18;;
4428;SDS011;2227;47.810;8.810;2022-09-16T05:39:12;9.65;;;4.45;;
4428;SDS011;2227;47.810;8.810;2022-09-16T05:41:53;6.28;;;4.07;;
4428;SDS011;2227;47.810;8.810;2022-09-16T05:44:21;6.63;;;4.65;;
4428;SDS011;2227;47.810;8.810;2022-09-16T05:46:48;7.10;;;4.97;;
4428;SDS011;2227;47.810;8.810;2022-09-16T05:49:15;6.05;;;4.00;;
4428;SDS011;2227;47.810;8.810;2022-09-16T05:51:46;7.13;;;4.57;;
4428;SDS011;2227;47.810;8.810;2022-09-16T05:54:14;6.30;;;4.90;;
4428;SDS011;2227;47.810;8.810;2022-09-16T05:56:43;7.93;;;4.97;;
4428;SDS011;2227;47.810;8.810;2022-09-16T05:59:11;8.45;;;4.40;;
4428;SDS011;2227;47.810;8.810;2022-09-16T06:01:38;6.80;;;4.55;;
4428;SDS011;2227;47.810;8.810;2022-09-16T06:04:07;6.50;;;4.43;;
4428;SDS011;2227;47.810;8.810;2022-09-16T06:06:37;7.03;;;4.32;;
4428;SDS011;2227;47.810;8.810;2022-09-16T06:09:14;9.82;;;4.80;;
4428;SDS011;2227;47.810;8.810;2022-09-16T06:11:50;6.22;;;4.68;;
4428;SDS011;2227;47.810;8.810;2022-09-16T06:14:26;7.00;;;5.10;;
4428;SDS011;2227;47.810;8.810;2022-09-16T06:16:53;7.57;;;4.55;;
4428;SDS011;2227;47.810;8.810;2022-09-16T06:19:20;7.25;;;5.60;;
4428;SDS011;2227;47.810;8.810;2022-09-16T06:21:47;8.13;;;5.20;;
4428;SDS011;2227;47.810;8.810;2022-09-16T06:24:14;10.23;;;5.72;;
4428;SDS011;2227;47.810;8.810;2022-09-16T06:26:43;6.85;;;5.22;;
4428;SDS011;2227;47.810;8.810;2022-09-16T06:29:10;7.93;;;6.32;;
4428;SDS011;2227;47.810;8.810;2022-09-16T06:31:38;8.80;;;6.30;;
4428;SDS011;2227;47.810;8.810;2022-09-16T06:34:05;8.23;;;6.43;;
4428;SDS011;2227;47.810;8.810;2022-09-16T06:36:34;7.55;;;5.43;;
4428;SDS011;2227;47.810;8.810;2022-09-16T06:39:13;9.13;;;5.35;;
4428;SDS011;2227;47.810;8.810;2022-09-16T06:41:40;7.22;;;4.50;;
4428;SDS011;2227;47.810;8.810;2022-09-16T06:44:07;6.65;;;5.63;;
4428;SDS011;2227;47.810;8.810;2022-09-16T06:46:34;6.97;;;5.57;;
4428;SDS011;2227;47.810;8.810;2022-09-16T06:49:01;6.82;;;5.93;;
4428;SDS011;2227;47.810;8.810;2022-09-16T06:51:32;8.10;;;6.22;;
4428;SDS011;2227;47.810;8.810;2022-09-16T06:54:00;6.97;;;4.90;;
4428;SDS011;2227;47.810;8.810;2022-09-16T06:56:29;6.55;;;4.90;;
4428;SDS011;2227;47.810;8.810;2022-09-16T06:58:56;7.28;;;4.70;;
4428;SDS011;2227;47.810;8.810;2022-09-16T07:01:24;5.97;;;4.47;;
4428;SDS011;2227;47.810;8.810;2022-09-16T07:03:53;6.85;;;4.60;;
4428;SDS011;2227;47.810;8.810;2022-09-16T07:06:21;6.05;;;4.53;;
4428;SDS011;2227;47.810;8.810;2022-09-16T07:09:09;6.88;;;4.95;;
4428;SDS011;2227;47.810;8.810;2022-09-16T07:11:36;8.75;;;5.25;;
4428;SDS011;2227;47.810;8.810;2022-09-16T07:14:03;10.70;;;7.13;;
4428;SDS011;2227;47.810;8.810;2022-09-16T07:16:30;8.95;;;7.68;;
4428;SDS011;2227;47.810;8.810;2022-09-16T07:18:57;10.90;;;7.47;;
4428;SDS011;2227;47.810;8.810;2022-09-16T07:21:26;9.52;;;7.50;;
4428;SDS011;2227;47.810;8.810;2022-09-16T07:23:56;10.05;;;7.47;;
4428;SDS011;2227;47.810;8.810;2022-09-16T07:26:25;12.05;;;7.93;;
4428;SDS011;2227;47.810;8.810;2022-09-16T07:28:53;9.70;;;7.30;;
4428;SDS011;2227;47.810;8.810;2022-09-16T07:31:21;8.85;;;7.00;;
4428;SDS011;2227;47.810;8.810;2022-09-16T07:33:54;9.52;;;7.78;;
4428;SDS011;2227;47.810;8.810;2022-09-16T07:36:30;10.30;;;7.97;;
4428;SDS011;2227;47.810;8.810;2022-09-16T07:38:59;8.77;;;7.10;;
4428;SDS011;2227;47.810;8.810;2022-09-16T07:41:27;11.93;;;7.75;;
4428;SDS011;2227;47.810;8.810;2022-09-16T07:43:56;8.77;;;7.57;;
4428;SDS011;2227;47.810;8.810;2022-09-16T07:46:25;10.50;;;7.97;;
4428;SDS011;2227;47.810;8.810;2022-09-16T07:48:53;8.57;;;7.13;;
4428;SDS011;2227;47.810;8.810;2022-09-16T07:51:22;10.10;;;7.40;;
4428;SDS011;2227;47.810;8.810;2022-09-16T07:53:53;10.27;;;6.55;;
4428;SDS011;2227;47.810;8.810;2022-09-16T07:56:22;9.13;;;6.72;;
4428;SDS011;2227;47.810;8.810;2022-09-16T07:58:51;9.43;;;6.97;;
4428;SDS011;2227;47.810;8.810;2022-09-16T08:01:19;8.27;;;6.97;;
4428;SDS011;2227;47.810;8.810;2022-09-16T08:03:46;9.68;;;7.07;;
4428;SDS011;2227;47.810;8.810;2022-09-16T08:06:17;9.40;;;6.60;;
4428;SDS011;2227;47.810;8.810;2022-09-16T08:08:51;9.48;;;7.03;;
4428;SDS011;2227;47.810;8.810;2022-09-16T08:11:20;7.20;;;5.80;;
4428;SDS011;2227;47.810;8.810;2022-09-16T08:13:47;8.73;;;5.72;;
4428;SDS011;2227;47.810;8.810;2022-09-16T08:16:14;7.40;;;5.43;;
4428;SDS011;2227;47.810;8.810;2022-09-16T08:18:43;6.22;;;4.88;;
4428;SDS011;2227;47.810;8.810;2022-09-16T08:21:12;6.63;;;5.18;;
4428;SDS011;2227;47.810;8.810;2022-09-16T08:26:12;9.05;;;5.15;;
4428;SDS011;2227;47.810;8.810;2022-09-16T08:28:40;8.20;;;4.88;;
4428;SDS011;2227;47.810;8.810;2022-09-16T08:31:28;7.07;;;5.38;;
4428;SDS011;2227;47.810;8.810;2022-09-16T08:33:55;9.38;;;5.50;;
4428;SDS011;2227;47.810;8.810;2022-09-16T08:36:22;8.07;;;5.43;;
4428;SDS011;2227;47.810;8.810;2022-09-16T08:38:51;7.75;;;5.45;;
4428;SDS011;2227;47.810;8.810;2022-09-16T08:47:21;7.10;;;4.28;;
4428;SDS011;2227;47.810;8.810;2022-09-16T08:49:44;8.07;;;5.40;;
4428;SDS011;2227;47.810;8.810;2022-09-16T08:54:44;7.10;;;5.18;;
4428;SDS011;2227;47.810;8.810;2022-09-16T08:57:19;6.75;;;4.82;;
4428;SDS011;2227;47.810;8.810;2022-09-16T08:59:49;5.82;;;3.80;;
4428;SDS011;2227;47.810;8.810;2022-09-16T09:02:31;6.13;;;3.75;;
4428;SDS011;2227;47.810;8.810;2022-09-16T09:05:34;6.40;;;3.85;;
4428;SDS011;2227;47.810;8.810;2022-09-16T09:08:26;6.03;;;3.28;;
4428;SDS011;2227;47.810;8.810;2022-09-16T09:30:53;8.05;;;2.70;;
4428;SDS011;2227;47.810;8.810;2022-09-16T09:36:25;4.65;;;1.05;;
4428;SDS011;2227;47.810;8.810;2022-09-16T09:39:19;2.00;;;1.05;;
4428;SDS011;2227;47.810;8.810;2022-09-16T09:45:20;1.52;;;0.60;;
4428;SDS011;2227;47.810;8.810;2022-09-16T09:50:16;0.70;;;0.40;;
4428;SDS011;2227;47.810;8.810;2022-09-16T09:55:45;1.77;;;0.50;;
4428;SDS011;2227;47.810;8.810;2022-09-16T10:01:02;0.43;;;0.38;;
4428;SDS011;2227;47.810;8.810;2022-09-16T10:03:29;0.77;;;0.60;;
4428;SDS011;2227;47.810;8.810;2022-09-16T10:05:56;1.02;;;0.60;;
4428;SDS011;2227;47.810;8.810;2022-09-16T10:08:27;0.75;;;0.50;;
4428;SDS011;2227;47.810;8.810;2022-09-16T10:10:56;1.60;;;0.55;;
4428;SDS011;2227;47.810;8.810;2022-09-16T10:13:28;1.67;;;0.55;;
4428;SDS011;2227;47.810;8.810;2022-09-16T10:16:16;1.10;;;0.50;;
4428;SDS011;2227;47.810;8.810;2022-09-16T10:18:54;1.63;;;0.80;;
4428;SDS011;2227;47.810;8.810;2022-09-16T10:21:35;1.05;;;0.60;;
4428;SDS011;2227;47.810;8.810;2022-09-16T10:27:00;1.33;;;0.45;;
4428;SDS011;2227;47.810;8.810;2022-09-16T10:29:42;1.10;;;0.50;;
4428;SDS011;2227;47.810;8.810;2022-09-16T10:32:10;0.90;;;0.70;;
4428;SDS011;2227;47.810;8.810;2022-09-16T10:34:43;0.60;;;0.50;;
4428;SDS011;2227;47.810;8.810;2022-09-16T10:37:14;0.88;;;0.50;;
4428;SDS011;2227;47.810;8.810;2022-09-16T10:39:43;0.88;;;0.60;;
4428;SDS011;2227;47.810;8.810;2022-09-16T10:42:23;1.58;;;0.82;;
4428;SDS011;2227;47.810;8.810;2022-09-16T10:44:52;1.58;;;0.63;;
4428;SDS011;2227;47.810;8.810;2022-09-16T10:47:24;2.10;;;0.90;;
4428;SDS011;2227;47.810;8.810;2022-09-16T10:50:00;2.45;;;0.73;;
4428;SDS011;2227;47.810;8.810;2022-09-16T10:52:31;1.73;;;0.82;;
4428;SDS011;2227;47.810;8.810;2022-09-16T10:58:08;1.60;;;0.98;;
4428;SDS011;2227;47.810;8.810;2022-09-16T11:17:28;3.10;;;1.20;;
4428;SDS011;2227;47.810;8.810;2022-09-16T11:20:31;4.47;;;1.38;;
4428;SDS011;2227;47.810;8.810;2022-09-16T11:34:07;2.10;;;1.15;;
4428;SDS011;2227;47.810;8.810;2022-09-16T11:39:29;2.22;;;1.00;;
4428;SDS011;2227;47.810;8.810;2022-09-16T11:42:12;3.47;;;1.17;;
4428;SDS011;2227;47.810;8.810;2022-09-16T11:47:33;3.17;;;1.50;;
4428;SDS011;2227;47.810;8.810;2022-09-16T11:51:08;2.08;;;1.20;;
4428;SDS011;2227;47.810;8.810;2022-09-16T11:59:25;4.95;;;1.85;;
4428;SDS011;2227;47.810;8.810;2022-09-16T12:02:50;2.85;;;1.50;;
4428;SDS011;2227;47.810;8.810;2022-09-16T12:04:52;4.60;;;1.90;;
4428;SDS011;2227;47.810;8.810;2022-09-16T12:07:33;4.03;;;1.80;;
4428;SDS011;2227;47.810;8.810;2022-09-16T12:10:13;3.80;;;1.65;;
4428;SDS011;2227;47.810;8.810;2022-09-16T12:13:06;3.58;;;1.60;;
4428;SDS011;2227;47.810;8.810;2022-09-16T12:16:01;2.17;;;1.50;;
4428;SDS011;2227;47.810;8.810;2022-09-16T12:18:46;2.90;;;1.80;;
4428;SDS011;2227;47.810;8.810;2022-09-16T12:21:29;5.47;;;2.40;;
4428;SDS011;2227;47.810;8.810;2022-09-16T12:24:05;3.45;;;1.90;;
4428;SDS011;2227;47.810;8.810;2022-09-16T12:26:40;4.63;;;2.25;;
4428;SDS011;2227;47.810;8.810;2022-09-16T12:29:21;5.45;;;1.92;;
4428;SDS011;2227;47.810;8.810;2022-09-16T12:32:11;4.85;;;2.00;;
4428;SDS011;2227;47.810;8.810;2022-09-16T12:34:51;4.90;;;2.10;;
4428;SDS011;2227;47.810;8.810;2022-09-16T12:37:28;3.88;;;1.90;;
4428;SDS011;2227;47.810;8.810;2022-09-16T12:40:02;4.15;;;1.52;;
4428;SDS011;2227;47.810;8.810;2022-09-16T12:45:28;4.00;;;2.15;;
4428;SDS011;2227;47.810;8.810;2022-09-16T12:51:07;5.35;;;2.05;;
4428;SDS011;2227;47.810;8.810;2022-09-16T12:53:56;4.63;;;1.98;;
4428;SDS011;2227;47.810;8.810;2022-09-16T13:02:20;3.88;;;2.05;;
4428;SDS011;2227;47.810;8.810;2022-09-16T13:04:52;4.25;;;1.85;;
4428;SDS011;2227;47.810;8.810;2022-09-16T13:07:31;4.57;;;2.17;;
4428;SDS011;2227;47.810;8.810;2022-09-16T13:10:07;2.78;;;1.70;;
4428;SDS011;2227;47.810;8.810;2022-09-16T13:12:52;3.47;;;1.65;;
4428;SDS011;2227;47.810;8.810;2022-09-16T13:15:22;5.00;;;1.80;;
4428;SDS011;2227;47.810;8.810;2022-09-16T13:20:49;3.42;;;1.70;;
4428;SDS011;2227;47.810;8.810;2022-09-16T13:23:32;1.85;;;1.35;;
4428;SDS011;2227;47.810;8.810;2022-09-16T13:26:04;4.82;;;2.13;;
4428;SDS011;2227;47.810;8.810;2022-09-16T13:28:37;4.97;;;1.80;;
4428;SDS011;2227;47.810;8.810;2022-09-16T13:33:46;3.13;;;1.45;;
4428;SDS011;2227;47.810;8.810;2022-09-16T13:39:01;3.10;;;1.65;;
4428;SDS011;2227;47.810;8.810;2022-09-16T13:44:02;3.03;;;1.63;;
4428;SDS011;2227;47.810;8.810;2022-09-16T13:46:50;2.50;;;1.50;;
4428;SDS011;2227;47.810;8.810;2022-09-16T13:49:23;2.72;;;1.75;;
4428;SDS011;2227;47.810;8.810;2022-09-16T13:51:52;2.63;;;1.50;;
4428;SDS011;2227;47.810;8.810;2022-09-16T13:54:34;5.35;;;2.53;;
4428;SDS011;2227;47.810;8.810;2022-09-16T14:12:16;2.53;;;1.60;;
4428;SDS011;2227;47.810;8.810;2022-09-16T14:14:47;4.55;;;2.00;;
4428;SDS011;2227;47.810;8.810;2022-09-16T14:17:16;5.55;;;2.00;;
4428;SDS011;2227;47.810;8.810;2022-09-16T14:19:45;4.15;;;1.80;;
4428;SDS011;2227;47.810;8.810;2022-09-16T14:22:17;3.30;;;1.67;;
4428;SDS011;2227;47.810;8.810;2022-09-16T14:24:47;2.90;;;1.40;;
4428;SDS011;2227;47.810;8.810;2022-09-16T14:27:32;5.82;;;1.80;;
4428;SDS011;2227;47.810;8.810;2022-09-16T14:30:05;4.72;;;1.85;;
4428;SDS011;2227;47.810;8.810;2022-09-16T14:32:39;3.10;;;1.50;;
4428;SDS011;2227;47.810;8.810;2022-09-16T14:35:12;3.63;;;1.80;;
4428;SDS011;2227;47.810;8.810;2022-09-16T14:37:44;3.25;;;1.98;;
4428;SDS011;2227;47.810;8.810;2022-09-16T14:40:13;3.33;;;1.60;;
4428;SDS011;2227;47.810;8.810;2022-09-16T14:42:46;3.17;;;1.90;;
4428;SDS011;2227;47.810;8.810;2022-09-16T14:45:19;4.13;;;1.63;;
4428;SDS011;2227;47.810;8.810;2022-09-16T14:47:46;5.82;;;2.40;;
4428;SDS011;2227;47.810;8.810;2022-09-16T14:50:24;3.10;;;1.65;;
4428;SDS011;2227;47.810;8.810;2022-09-16T14:52:54;3.83;;;2.10;;
4428;SDS011;2227;47.810;8.810;2022-09-16T14:55:26;4.90;;;1.88;;
4428;SDS011;2227;47.810;8.810;2022-09-16T14:57:56;4.20;;;1.80;;
4428;SDS011;2227;47.810;8.810;2022-09-16T15:00:27;4.72;;;2.17;;
4428;SDS011;2227;47.810;8.810;2022-09-16T15:03:04;4.57;;;1.90;;
4428;SDS011;2227;47.810;8.810;2022-09-16T15:05:39;3.75;;;1.92;;
4428;SDS011;2227;47.810;8.810;2022-09-16T15:08:24;4.40;;;1.85;;
4428;SDS011;2227;47.810;8.810;2022-09-16T15:10:53;2.67;;;1.50;;
4428;SDS011;2227;47.810;8.810;2022-09-16T15:13:24;4.32;;;1.60;;
4428;SDS011;2227;47.810;8.810;2022-09-16T15:18:28;2.50;;;1.50;;
4428;SDS011;2227;47.810;8.810;2022-09-16T15:21:11;3.60;;;1.73;;
4428;SDS011;2227;47.810;8.810;2022-09-16T15:23:45;3.67;;;1.70;;
4428;SDS011;2227;47.810;8.810;2022-09-16T15:31:43;4.82;;;1.80;;
4428;SDS011;2227;47.810;8.810;2022-09-16T15:36:44;4.28;;;1.85;;
4428;SDS011;2227;47.810;8.810;2022-09-16T15:44:51;4.28;;;1.75;;
4428;SDS011;2227;47.810;8.810;2022-09-16T15:47:30;4.60;;;1.80;;
4428;SDS011;2227;47.810;8.810;2022-09-16T15:50:03;2.95;;;1.40;;
4428;SDS011;2227;47.810;8.810;2022-09-16T15:52:32;4.07;;;1.88;;
4428;SDS011;2227;47.810;8.810;2022-09-16T15:55:13;3.38;;;1.55;;
4428;SDS011;2227;47.810;8.810;2022-09-16T15:57:58;4.63;;;1.80;;
4428;SDS011;2227;47.810;8.810;2022-09-16T16:00:33;2.45;;;1.38;;
4428;SDS011;2227;47.810;8.810;2022-09-16T16:03:20;4.43;;;1.88;;
4428;SDS011;2227;47.810;8.810;2022-09-16T16:05:50;4.07;;;1.70;;
4428;SDS011;2227;47.810;8.810;2022-09-16T16:11:10;2.78;;;1.55;;
4428;SDS011;2227;47.810;8.810;2022-09-16T16:13:39;4.47;;;1.98;;
4428;SDS011;2227;47.810;8.810;2022-09-16T16:16:06;7.05;;;2.28;;
4428;SDS011;2227;47.810;8.810;2022-09-16T16:18:34;7.30;;;2.03;;
4428;SDS011;2227;47.810;8.810;2022-09-16T16:21:08;2.75;;;1.70;;
4428;SDS011;2227;47.810;8.810;2022-09-16T16:23:37;2.75;;;1.70;;
4428;SDS011;2227;47.810;8.810;2022-09-16T16:26:06;5.07;;;1.70;;
4428;SDS011;2227;47.810;8.810;2022-09-16T16:28:34;3.75;;;1.80;;
4428;SDS011;2227;47.810;8.810;2022-09-16T16:31:16;4.90;;;2.00;;
4428;SDS011;2227;47.810;8.810;2022-09-16T16:33:44;2.60;;;1.50;;
4428;SDS011;2227;47.810;8.810;2022-09-16T16:36:13;3.75;;;1.77;;
4428;SDS011;2227;47.810;8.810;2022-09-16T16:38:43;4.25;;;1.85;;
4428;SDS011;2227;47.810;8.810;2022-09-16T16:41:11;4.15;;;2.08;;
4428;SDS011;2227;47.810;8.810;2022-09-16T16:43:38;5.45;;;1.98;;
4428;SDS011;2227;47.810;8.810;2022-09-16T16:46:05;6.15;;;2.13;;
4428;SDS011;2227;47.810;8.810;2022-09-16T16:48:32;3.50;;;2.20;;
4428;SDS011;2227;47.810;8.810;2022-09-16T16:51:00;4.97;;;2.22;;
4428;SDS011;2227;47.810;8.810;2022-09-16T16:53:31;4.50;;;2.35;;
4428;SDS011;2227;47.810;8.810;2022-09-16T16:56:08;5.97;;;2.83;;
4428;SDS011;2227;47.810;8.810;2022-09-16T16:58:40;5.32;;;2.08;;
4428;SDS011;2227;47.810;8.810;2022-09-16T17:01:11;3.05;;;1.63;;
4428;SDS011;2227;47.810;8.810;2022-09-16T17:03:40;5.65;;;1.90;;
4428;SDS011;2227;47.810;8.810;2022-09-16T17:06:07;3.25;;;1.98;;
4428;SDS011;2227;47.810;8.810;2022-09-16T17:08:34;5.00;;;1.67;;
4428;SDS011;2227;47.810;8.810;2022-09-16T17:11:19;3.92;;;1.98;;
4428;SDS011;2227;47.810;8.810;2022-09-16T17:13:47;4.45;;;1.58;;
4428;SDS011;2227;47.810;8.810;2022-09-16T17:16:16;5.30;;;1.85;;
4428;SDS011;2227;47.810;8.810;2022-09-16T17:18:45;3.08;;;1.80;;
4428;SDS011;2227;47.810;8.810;2022-09-16T17:21:17;4.15;;;1.90;;
4428;SDS011;2227;47.810;8.810;2022-09-16T17:23:49;4.55;;;1.85;;
4428;SDS011;2227;47.810;8.810;2022-09-16T17:26:16;3.92;;;1.63;;
4428;SDS011;2227;47.810;8.810;2022-09-16T17:28:46;3.53;;;1.67;;
4428;SDS011;2227;47.810;8.810;2022-09-16T17:31:17;4.50;;;1.80;;
4428;SDS011;2227;47.810;8.810;2022-09-16T17:33:52;5.57;;;2.13;;
4428;SDS011;2227;47.810;8.810;2022-09-16T17:36:20;3.42;;;1.80;;
4428;SDS011;2227;47.810;8.810;2022-09-16T17:39:00;4.97;;;2.05;;
4428;SDS011;2227;47.810;8.810;2022-09-16T17:41:31;3.08;;;1.75;;
4428;SDS011;2227;47.810;8.810;2022-09-16T17:44:02;3.88;;;1.73;;
4428;SDS011;2227;47.810;8.810;2022-09-16T17:46:31;3.10;;;1.80;;
4428;SDS011;2227;47.810;8.810;2022-09-16T17:48:58;3.72;;;1.70;;
4428;SDS011;2227;47.810;8.810;2022-09-16T17:51:26;4.43;;;1.92;;
4428;SDS011;2227;47.810;8.810;2022-09-16T17:53:53;6.25;;;1.80;;
4428;SDS011;2227;47.810;8.810;2022-09-16T17:56:20;4.47;;;1.77;;
4428;SDS011;2227;47.810;8.810;2022-09-16T17:58:47;2.70;;;1.60;;
4428;SDS011;2227;47.810;8.810;2022-09-16T18:01:17;4.18;;;1.95;;
4428;SDS011;2227;47.810;8.810;2022-09-16T18:03:46;4.10;;;1.65;;
4428;SDS011;2227;47.810;8.810;2022-09-16T18:06:16;3.90;;;1.80;;
4428;SDS011;2227;47.810;8.810;2022-09-16T18:08:44;4.30;;;1.50;;
4428;SDS011;2227;47.810;8.810;2022-09-16T18:11:12;5.05;;;2.10;;
4428;SDS011;2227;47.810;8.810;2022-09-16T18:13:41;3.45;;;1.73;;
4428;SDS011;2227;47.810;8.810;2022-09-16T18:16:16;3.95;;;2.40;;
4428;SDS011;2227;47.810;8.810;2022-09-16T18:18:45;3.55;;;1.75;;
4428;SDS011;2227;47.810;8.810;2022-09-16T18:21:21;3.92;;;1.90;;
4428;SDS011;2227;47.810;8.810;2022-09-16T18:23:56;4.63;;;1.98;;
4428;SDS011;2227;47.810;8.810;2022-09-16T18:26:24;3.72;;;1.90;;
4428;SDS011;2227;47.810;8.810;2022-09-16T18:28:52;4.88;;;2.15;;
4428;SDS011;2227;47.810;8.810;2022-09-16T18:31:39;4.75;;;2.60;;
4428;SDS011;2227;47.810;8.810;2022-09-16T18:34:13;4.80;;;2.70;;
4428;SDS011;2227;47.810;8.810;2022-09-16T18:36:41;6.32;;;2.25;;
4428;SDS011;2227;47.810;8.810;2022-09-16T18:39:14;4.82;;;2.28;;
4428;SDS011;2227;47.810;8.810;2022-09-16T18:41:42;4.80;;;2.30;;
4428;SDS011;2227;47.810;8.810;2022-09-16T18:44:11;5.28;;;2.45;;
4428;SDS011;2227;47.810;8.810;2022-09-16T18:46:40;5.38;;;2.50;;
4428;SDS011;2227;47.810;8.810;2022-09-16T18:49:08;4.18;;;2.35;;
4428;SDS011;2227;47.810;8.810;2022-09-16T18:51:37;3.78;;;2.10;;
4428;SDS011;2227;47.810;8.810;2022-09-16T18:54:09;8.20;;;3.03;;
4428;SDS011;2227;47.810;8.810;2022-09-16T18:56:38;5.38;;;3.90;;
4428;SDS011;2227;47.810;8.810;2022-09-16T18:59:16;4.90;;;2.30;;
4428;SDS011;2227;47.810;8.810;2022-09-16T19:01:48;4.43;;;2.55;;
4428;SDS011;2227;47.810;8.810;2022-09-16T19:04:17;4.82;;;2.47;;
4428;SDS011;2227;47.810;8.810;2022-09-16T19:06:46;4.53;;;2.85;;
4428;SDS011;2227;47.810;8.810;2022-09-16T19:09:15;3.88;;;2.10;;
4428;SDS011;2227;47.810;8.810;2022-09-16T19:11:44;4.05;;;2.17;;
4428;SDS011;2227;47.810;8.810;2022-09-16T19:14:11;3.58;;;1.83;;
4428;SDS011;2227;47.810;8.810;2022-09-16T19:16:41;3.63;;;1.70;;
4428;SDS011;2227;47.810;8.810;2022-09-16T19:19:11;3.83;;;2.30;;
4428;SDS011;2227;47.810;8.810;2022-09-16T19:21:39;3.70;;;1.77;;
4428;SDS011;2227;47.810;8.810;2022-09-16T19:24:09;3.63;;;1.33;;
4428;SDS011;2227;47.810;8.810;2022-09-16T19:26:39;2.28;;;1.10;;
4428;SDS011;2227;47.810;8.810;2022-09-16T19:29:07;2.05;;;1.00;;
4428;SDS011;2227;47.810;8.810;2022-09-16T19:31:36;3.00;;;1.10;;
4428;SDS011;2227;47.810;8.810;2022-09-16T19:34:04;2.25;;;0.88;;
4428;SDS011;2227;47.810;8.810;2022-09-16T19:36:31;1.65;;;0.80;;
4428;SDS011;2227;47.810;8.810;2022-09-16T19:38:59;2.95;;;0.95;;
4428;SDS011;2227;47.810;8.810;2022-09-16T19:41:27;2.65;;;0.90;;
4428;SDS011;2227;47.810;8.810;2022-09-16T19:43:56;2.03;;;0.77;;
4428;SDS011;2227;47.810;8.810;2022-09-16T19:46:25;1.52;;;0.80;;
4428;SDS011;2227;47.810;8.810;2022-09-16T19:48:53;2.20;;;0.90;;
4428;SDS011;2227;47.810;8.810;2022-09-16T19:51:20;2.08;;;0.70;;
4428;SDS011;2227;47.810;8.810;2022-09-16T19:53:49;3.35;;;1.23;;
4428;SDS011;2227;47.810;8.810;2022-09-16T19:56:23;2.55;;;0.80;;
4428;SDS011;2227;47.810;8.810;2022-09-16T19:58:52;2.80;;;0.85;;
4428;SDS011;2227;47.810;8.810;2022-09-16T20:01:20;3.55;;;1.05;;
4428;SDS011;2227;47.810;8.810;2022-09-16T20:03:50;2.03;;;0.90;;
4428;SDS011;2227;47.810;8.810;2022-09-16T20:06:18;2.47;;;1.00;;
4428;SDS011;2227;47.810;8.810;2022-09-16T20:08:47;2.83;;;1.10;;
4428;SDS011;2227;47.810;8.810;2022-09-16T20:11:18;3.50;;;1.00;;
4428;SDS011;2227;47.810;8.810;2022-09-16T20:13:50;2.28;;;1.08;;
4428;SDS011;2227;47.810;8.810;2022-09-16T20:16:20;2.05;;;0.85;;
4428;SDS011;2227;47.810;8.810;2022-09-16T20:18:48;2.55;;;1.25;;
4428;SDS011;2227;47.810;8.810;2022-09-16T20:21:15;3.03;;;1.15;;
4428;SDS011;2227;47.810;8.810;2022-09-16T20:23:44;2.47;;;1.08;;
4428;SDS011;2227;47.810;8.810;2022-09-16T20:26:12;2.63;;;1.00;;
4428;SDS011;2227;47.810;8.810;2022-09-16T20:28:45;1.45;;;0.80;;
4428;SDS011;2227;47.810;8.810;2022-09-16T20:31:17;2.22;;;0.93;;
4428;SDS011;2227;47.810;8.810;2022-09-16T20:33:46;3.10;;;1.20;;
4428;SDS011;2227;47.810;8.810;2022-09-16T20:36:14;2.92;;;0.75;;
4428;SDS011;2227;47.810;8.810;2022-09-16T20:38:45;1.95;;;0.70;;
4428;SDS011;2227;47.810;8.810;2022-09-16T20:41:13;1.38;;;0.75;;
4428;SDS011;2227;47.810;8.810;2022-09-16T20:43:40;2.60;;;0.90;;
4428;SDS011;2227;47.810;8.810;2022-09-16T20:46:13;1.75;;;0.85;;
4428;SDS011;2227;47.810;8.810;2022-09-16T20:48:40;3.03;;;0.95;;
4428;SDS011;2227;47.810;8.810;2022-09-16T20:51:09;4.18;;;1.02;;
4428;SDS011;2227;47.810;8.810;2022-09-16T20:53:53;2.72;;;1.20;;
4428;SDS011;2227;47.810;8.810;2022-09-16T20:56:21;2.17;;;1.02;;
4428;SDS011;2227;47.810;8.810;2022-09-16T20:58:48;2.67;;;1.10;;
4428;SDS011;2227;47.810;8.810;2022-09-16T21:01:16;3.78;;;1.20;;
4428;SDS011;2227;47.810;8.810;2022-09-16T21:03:51;1.58;;;0.73;;
4428;SDS011;2227;47.810;8.810;2022-09-16T21:06:23;1.92;;;0.77;;
4428;SDS011;2227;47.810;8.810;2022-09-16T21:08:52;2.90;;;0.70;;
4428;SDS011;2227;47.810;8.810;2022-09-16T21:11:28;3.00;;;0.90;;
4428;SDS011;2227;47.810;8.810;2022-09-16T21:13:56;1.88;;;0.70;;
4428;SDS011;2227;47.810;8.810;2022-09-16T21:16:25;3.97;;;1.13;;
4428;SDS011;2227;47.810;8.810;2022-09-16T21:18:53;2.15;;;0.80;;
4428;SDS011;2227;47.810;8.810;2022-09-16T21:21:21;1.02;;;0.63;;
4428;SDS011;2227;47.810;8.810;2022-09-16T21:23:53;2.35;;;0.70;;
4428;SDS011;2227;47.810;8.810;2022-09-16T21:26:22;2.05;;;0.88;;
4428;SDS011;2227;47.810;8.810;2022-09-16T21:28:52;1.58;;;0.70;;
4428;SDS011;2227;47.810;8.810;2022-09-16T21:31:20;1.30;;;0.80;;
4428;SDS011;2227;47.810;8.810;2022-09-16T21:33:47;2.13;;;0.55;;
4428;SDS011;2227;47.810;8.810;2022-09-16T21:36:20;2.37;;;0.70;;
4428;SDS011;2227;47.810;8.810;2022-09-16T21:38:48;1.75;;;0.90;;
4428;SDS011;2227;47.810;8.810;2022-09-16T21:41:15;2.92;;;1.38;;
4428;SDS011;2227;47.810;8.810;2022-09-16T21:43:47;2.22;;;0.70;;
4428;SDS011;2227;47.810;8.810;2022-09-16T21:46:16;1.88;;;0.80;;
4428;SDS011;2227;47.810;8.810;2022-09-16T21:48:45;1.58;;;0.80;;
4428;SDS011;2227;47.810;8.810;2022-09-16T21:51:16;1.83;;;0.65;;
4428;SDS011;2227;47.810;8.810;2022-09-16T21:53:46;2.13;;;0.88;;
4428;SDS011;2227;47.810;8.810;2022-09-16T21:56:17;1.65;;;0.80;;